Flight Track Log - Related Links

Times and Time Zones

All times are in EDT time to prevent confusion due to time zone crossing. See the N182HP flight status page for this flight to view local times or setup timezone preferences in your user account.

Time Position Orientation Groundspeed Altitude Reporting Facility
EDT Latitude Longitude Course Direction KTS MPH feet Rate Location/Type
Mon 12:09:11 PM 39.3167 -76.4000 270° West 78 90 600  Level Potomac TRACON
Mon 12:10:11 PM 39.3167 -76.4333 270° West 89 102 1,100 446 Climbing Potomac TRACON
Mon 12:11:12 PM 39.3333 -76.4667 303° West 86 99 1,500 496 Climbing Potomac TRACON
Mon 12:12:12 PM 39.3500 -76.4833 322° Northwest 102 117 2,100 500 Climbing Potomac TRACON
Mon 12:13:12 PM 39.3667 -76.4667 38° Northeast 100 115 2,500 450 Climbing Potomac TRACON
Mon 12:14:12 PM 39.4000 -76.4500 21° North 97 112 3,000 250 Climbing Potomac TRACON
Mon 12:15:12 PM 39.4333 -76.4500 360° North 127 146 3,000 52 Level Potomac TRACON
Mon 12:16:07 PM 39.4667 -76.4333 21° North 144 166 3,100 149 Climbing Potomac TRACON
Mon 12:17:13 PM 39.5000 -76.4333 360° North 137 158 3,300 350 Climbing Potomac TRACON
Mon 12:18:07 PM 39.5333 -76.4167 21° North 113 130 3,800 526 Climbing Potomac TRACON
Mon 12:19:07 PM 39.5667 -76.4167 360° North 114 131 4,300 500 Climbing Potomac TRACON
Mon 12:20:07 PM 39.6000 -76.4000 21° North 112 129 4,800 500 Climbing Potomac TRACON
Mon 12:21:07 PM 39.6167 -76.4000 360° North 114 131 5,300 Climbing Potomac TRACON
Mon 12:23:00 PM 39.6530 -76.3108 62° Northeast  Level Estimated
Mon 12:30:00 PM 39.7872 -75.9786 62° Northeast  Level Estimated
Mon 12:31:00 PM 39.8063 -75.9311 62° Northeast  Level Estimated
Mon 12:32:00 PM 39.8254 -75.8835 62° Northeast  Level Estimated
Mon 12:33:00 PM 39.8445 -75.8359 62° Northeast  Level Estimated
Mon 12:34:00 PM 39.8635 -75.7882 62° Northeast  Level Estimated
Mon 12:35:00 PM 39.8825 -75.7406 63° Northeast  Level Estimated
Mon 12:36:00 PM 39.9015 -75.6929 63° Northeast  Level Estimated
Mon 12:37:00 PM 39.9205 -75.6451 63° Northeast  Level Estimated
Mon 12:38:00 PM 39.9395 -75.5974 63° Northeast  Level Estimated
Mon 12:39:00 PM 39.9580 -75.5508 63° Northeast  Level Estimated
Mon 12:40:00 PM 39.9765 -75.5041 63° Northeast  Level Estimated
Mon 12:41:00 PM 39.9949 -75.4574 63° Northeast  Level Estimated
Mon 12:42:00 PM 40.0134 -75.4106 63° Northeast  Level Estimated
Mon 12:43:00 PM 40.0318 -75.3639 63° Northeast  Level Estimated
Mon 12:44:00 PM 40.0502 -75.3171 63° Northeast  Level Estimated
Mon 12:45:00 PM 40.0686 -75.2703 63° Northeast  Level Estimated
Mon 12:46:00 PM 40.0870 -75.2235 63° Northeast  Level Estimated
Mon 12:47:00 PM 40.1053 -75.1766 63° Northeast  Level Estimated
Mon 12:48:00 PM 40.1236 -75.1297 63° Northeast  Level Estimated
Mon 12:49:00 PM 40.1420 -75.0828 63° Northeast  Level Estimated
Mon 12:50:00 PM 40.1603 -75.0359 63° Northeast  Level Estimated
Mon 12:51:00 PM 40.1785 -74.9889 63° Northeast  Level Estimated
Mon 12:52:00 PM 40.1968 -74.9420 63° Northeast  Level Estimated
Mon 12:53:00 PM 40.2150 -74.8950 63° Northeast  Level Estimated
Mon 12:54:00 PM 40.2333 -74.8479 63° Northeast  Level Estimated
Mon 12:55:00 PM 40.2515 -74.8009 63° Northeast  Level Estimated
Mon 12:56:00 PM 40.2696 -74.7538 63° Northeast  Level Estimated
Mon 12:57:00 PM 40.2878 -74.7067 63° Northeast  Level Estimated
Mon 12:58:00 PM 40.3059 -74.6595 63° Northeast  Level Estimated
Mon 12:59:00 PM 40.3241 -74.6124 63° Northeast  Level Estimated
Mon 01:00:00 PM 40.3422 -74.5652 63° Northeast  Level Estimated
Mon 01:01:00 PM 40.3602 -74.5180 63° Northeast  Level Estimated
Mon 01:02:00 PM 40.3783 -74.4708 63° Northeast  Level Estimated
Mon 01:03:00 PM 40.3964 -74.4235 63° Northeast  Level Estimated
Mon 01:04:00 PM 40.4144 -74.3762 63° Northeast  Level Estimated
Mon 01:05:00 PM 40.4324 -74.3289 63° Northeast  Level Estimated
Mon 01:06:00 PM 40.4504 -74.2816 63° Northeast  Level Estimated
Mon 01:07:00 PM 40.4684 -74.2342 63° Northeast  Level Estimated
Mon 01:08:00 PM 40.4863 -74.1868 64° Northeast  Level Estimated
Mon 01:09:00 PM 40.5042 -74.1394 64° Northeast  Level Estimated
Mon 01:10:00 PM 40.5222 -74.0920 64° Northeast  Level Estimated
Mon 01:11:00 PM 40.5401 -74.0445 64° Northeast  Level Estimated
Mon 01:12:00 PM 40.5579 -73.9970 64° Northeast  Level Estimated
Mon 01:12:21 PM 41.0833 -74.9833 64° Northeast 138 159 5,100  Level New York TRACON
Mon 01:13:00 PM 40.5758 -73.9495 64° Northeast  Level Estimated
Mon 01:13:15 PM 41.1000 -74.9333 66° East 146 168 5,100  Level New York TRACON
Mon 01:14:00 PM 40.5936 -73.9020 64° Northeast  Level Estimated
Mon 01:14:21 PM 41.1167 -74.8833 66° East 145 167 5,100  Level New York TRACON
Mon 01:15:00 PM 40.6114 -73.8544 64° Northeast  Level Estimated
Mon 01:15:21 PM 41.1333 -74.8500 56° Northeast 137 158 5,100  Level New York TRACON
Mon 01:16:00 PM 40.6292 -73.8068 64° Northeast  Level Estimated
Mon 01:16:15 PM 41.1500 -74.8000 66° East 138 159 5,100  Level New York TRACON
Mon 01:17:00 PM 40.6470 -73.7592 64° Northeast  Level Estimated
Mon 01:17:15 PM 41.1667 -74.7500 66° East 136 157 5,100  Level New York TRACON
Mon 01:18:21 PM 41.1667 -74.7000 90° East 135 155 5,100  Level New York TRACON
Mon 01:19:21 PM 41.1833 -74.6500 66° East 140 161 5,100  Level New York TRACON
Mon 01:20:21 PM 41.2000 -74.6000 66° East 138 159 5,100  Level New York TRACON
Mon 01:21:21 PM 41.2167 -74.5667 56° Northeast 142 163 5,100  Level New York TRACON
Mon 01:22:21 PM 41.2333 -74.5167 66° East 127 146 5,100  Level New York TRACON
Mon 01:23:21 PM 41.2500 -74.4667 66° East 133 153 5,100  Level New York TRACON
Mon 01:24:27 PM 41.2500 -74.4167 90° East 127 146 5,100  Level New York TRACON
Mon 01:25:27 PM 41.2333 -74.3833 124° Southeast 133 153 5,100  Level New York TRACON
Mon 01:26:27 PM 41.2167 -74.3333 114° Southeast 119 137 5,100  Level New York TRACON
Mon 01:27:27 PM 41.2167 -74.3000 90° East 122 140 5,100  Level New York TRACON
Mon 01:28:21 PM 41.2333 -74.2500 66° East 130 150 5,100  Level New York TRACON
Mon 01:29:27 PM 41.2333 -74.2000 90° East 115 132 5,100 190 Level New York TRACON
Mon 01:30:27 PM 41.2333 -74.1667 90° East 101 116 5,500 400 Climbing New York TRACON
Mon 01:31:27 PM 41.2333 -74.1333 90° East 96 110 5,900 450 Climbing New York TRACON
Mon 01:32:27 PM 41.2333 -74.1000 90° East 99 114 6,400 421 Climbing New York TRACON
Mon 01:33:21 PM 41.2333 -74.0667 90° East 101 116 6,700 250 Climbing New York TRACON
Mon 01:34:27 PM 41.2500 -74.0167 66° East 122 140 6,900 97 Climbing New York TRACON
Mon 01:36:27 PM 41.2500 -73.9167 90° East 131 151 7,000 33 Climbing New York TRACON
Mon 01:37:27 PM 41.2500 -73.8667 90° East 137 158 7,000  Level New York TRACON
Mon 01:39:27 PM 41.2667 -73.7833 75° East 133 153 7,000  Level New York TRACON
Mon 01:40:21 PM 41.2667 -73.7333 90° East 138 159 7,000  Level New York TRACON
Mon 01:41:21 PM 41.2667 -73.6833 90° East 131 151 7,000  Level New York TRACON
Mon 01:42:21 PM 41.2833 -73.6333 66° East 136 157 7,000  Level New York TRACON
Mon 01:43:21 PM 41.2833 -73.5833 90° East 130 150 7,000  Level New York TRACON
Mon 01:44:21 PM 41.3000 -73.5500 56° Northeast 132 152 7,000  Level New York TRACON
Mon 01:45:21 PM 41.3000 -73.5000 90° East 133 153 7,000 37 Level New York TRACON
Mon 01:47:03 PM 41.3333 -73.4269 59° Northeast 130 150 7,100 37 Climbing Boston Center
Mon 01:48:04 PM 41.3481 -73.3831 66° East 129 148 7,100  Level Boston Center
Mon 01:49:04 PM 41.3631 -73.3389 66° East 127 146 7,100  Level Boston Center
Mon 01:50:11 PM 41.3822 -73.2922 61° Northeast 127 146 7,100  Level Boston Center
Mon 01:51:12 PM 41.3950 -73.2481 69° East 130 150 7,100  Level Boston Center
Mon 01:52:12 PM 41.4100 -73.2067 64° Northeast 129 148 7,100  Level Boston Center
Mon 01:53:13 PM 41.4269 -73.1628 63° Northeast 128 147 7,100  Level Boston Center
Mon 01:54:14 PM 41.4417 -73.1186 66° East 128 147 7,100  Level Boston Center
Mon 01:55:15 PM 41.4567 -73.0772 64° Northeast 129 148 7,100  Level Boston Center
Mon 01:56:15 PM 41.4714 -73.0331 66° East 129 148 7,100  Level Boston Center
Mon 01:57:16 PM 41.4883 -72.9861 64° Northeast 130 150 7,100  Level Boston Center
Mon 01:58:16 PM 41.5053 -72.9417 63° Northeast 131 151 7,100  Level Boston Center
Mon 01:59:05 PM 41.5158 -72.9058 69° East 130 150 7,100  Level Boston Center
Mon 02:00:06 PM 41.5306 -72.8617 66° East 130 150 7,100  Level Boston Center
Mon 02:01:06 PM 41.5475 -72.8200 61° Northeast 133 153 7,100  Level Boston Center
Mon 02:02:07 PM 41.5622 -72.7731 67° East 132 152 7,100  Level Boston Center
Mon 02:03:07 PM 41.5789 -72.7258 65° Northeast 134 154 7,100  Level Boston Center
Mon 02:03:49 PM 41.5914 -72.6956 61° Northeast 135 155 7,100  Level Boston Center
Mon 02:04:13 PM 41.5958 -72.6761 73° East 135 155 7,100  Level Boston Center
Mon 02:05:14 PM 41.6125 -72.6317 63° Northeast 135 155 7,100  Level Boston Center
Mon 02:06:15 PM 41.6272 -72.5872 66° East 134 154 7,100 47 Level Boston Center
Mon 02:07:21 PM 41.6250 -72.5344 93° East 122 140 7,200  Climbing Boston Center
Mon 02:08:22 PM 41.6189 -72.4928 101° East 122 140 7,100 -47 Descending Boston Center
Mon 02:09:29 PM 41.6167 -72.4428 93° East 123 142 7,100  Level Boston Center
Mon 02:10:29 PM 41.6147 -72.3956 93° East 124 143 7,100  Level Boston Center
Mon 02:11:30 PM 41.6083 -72.3456 100° East 125 144 7,100 -248 Level Boston Center
Mon 02:12:30 PM 41.6064 -72.2958 93° East 134 154 6,600 -496 Descending Boston Center
Mon 02:13:31 PM 41.6019 -72.2458 97° East 137 158 6,100 -492 Descending Boston Center
Mon 02:14:32 PM 41.5978 -72.1986 97° East 135 155 5,600 -495 Descending Boston Center
Mon 02:15:20 PM 41.5956 -72.1569 94° East 131 151 5,200 -425 Descending Boston Center
Mon 02:16:39 PM 41.5911 -72.0958 96° East 128 147 4,700 -403 Descending Boston Center
Mon 02:17:34 PM 41.5892 -72.0542 94° East 129 148 4,300 -470 Descending Boston Center
Mon 02:18:34 PM 41.5847 -72.0017 96° East 131 151 3,800 -446 Descending Boston Center
Mon 02:19:35 PM 41.5803 -71.9544 97° East 130 150 3,400 -393 Descending Boston Center
Mon 02:20:36 PM 41.5758 -71.9072 97° East 130 150 3,000 -189 Descending Boston Center
Mon 02:21:42 PM 41.5758 -71.8603 90° East 115 132 3,000  Level Boston Center
Mon 02:22:43 PM 41.5733 -71.8214 95° East 110 127 3,000  Level Boston Center
Mon 02:23:37 PM 41.5753 -71.7797 86° East 113 130 3,000 55 Level Boston Center
Mon 02:24:32 PM 41.5731 -71.7436 95° East 112 129 3,100 109 Climbing Boston Center

Login

Don't have an account? Register now (free) for customized features, flight alerts, and more!